Time;durP1;ratioP1;P1;durP2;ratioP2;P2;SDS_P1;SDS_P2;PMS_P1;PMS_P2;Temp;Humidity;BMP_temperature;BMP_pressure;BME280_temperature;BME280_humidity;BME280_pressure;Samples;Min_cycle;Max_cycle;Signal;HPM_P1;HPM_P2
2023/10/12 00:01:39;;;;;;;;;11.00;9.00;;;;;;;;5057996;28;46968;-75
2023/10/12 00:04:11;;;;;;;;;13.33;11.67;;;;;;;;5059125;28;45428;-74
2023/10/12 00:06:37;;;;;;;;;14.00;12.00;;;;;;;;5066864;28;45456;-74
2023/10/12 00:09:10;;;;;;;;;12.00;11.00;;;;;;;;5078360;28;45799;-75
2023/10/12 00:11:40;;;;;;;;;14.33;13.67;;;;;;;;5078706;28;45298;-75
2023/10/12 00:14:05;;;;;;;;;9.67;8.00;;;;;;;;5079009;28;45327;-75
2023/10/12 00:16:30;;;;;;;;;10.67;10.33;;;;;;;;5078018;28;45370;-75
2023/10/12 00:18:56;;;;;;;;;13.33;13.33;;;;;;;;5078208;28;45288;-74
2023/10/12 00:21:25;;;;;;;;;9.67;9.67;;;;;;;;5078080;28;47036;-74
2023/10/12 00:23:52;;;;;;;;;14.00;12.67;;;;;;;;5079604;28;45313;-74
2023/10/12 00:26:17;;;;;;;;;13.33;12.00;;;;;;;;5079400;28;45500;-74
2023/10/12 00:28:44;;;;;;;;;10.67;10.67;;;;;;;;5083170;27;45468;-75
2023/10/12 00:31:18;;;;;;;;;13.00;11.67;;;;;;;;5098722;27;45332;-74
2023/10/12 00:33:43;;;;;;;;;7.67;7.67;;;;;;;;5098059;27;48057;-74
2023/10/12 00:36:21;;;;;;;;;12.00;10.67;;;;;;;;5098391;27;45387;-74
2023/10/12 00:38:47;;;;;;;;;13.67;12.67;;;;;;;;5099881;27;45235;-73
2023/10/12 00:41:14;;;;;;;;;12.00;10.00;;;;;;;;5099703;27;45125;-74
2023/10/12 00:44:07;;;;;;;;;12.00;12.00;;;;;;;;5099593;27;45282;-74
2023/10/12 00:46:40;;;;;;;;;11.00;10.67;;;;;;;;5099309;27;45263;-73
2023/10/12 00:51:50;;;;;;;;;11.33;11.33;;;;;;;;5099422;27;45333;-74
2023/10/12 00:57:17;;;;;;;;;14.00;10.00;;;;;;;;5075789;27;45375;-73
2023/10/12 00:59:43;;;;;;;;;8.00;8.00;;;;;;;;5099597;27;45309;-76
2023/10/12 01:02:09;;;;;;;;;8.67;8.67;;;;;;;;5099186;27;46091;-77
2023/10/12 01:04:39;;;;;;;;;13.00;13.00;;;;;;;;5099446;27;46164;-77
2023/10/12 01:07:06;;;;;;;;;11.00;11.00;;;;;;;;5099376;27;45376;-74
2023/10/12 01:09:43;;;;;;;;;15.33;13.33;;;;;;;;5099576;27;45307;-76
2023/10/12 01:12:18;;;;;;;;;11.33;10.33;;;;;;;;5102454;27;45404;-77
2023/10/12 01:14:45;;;;;;;;;14.00;13.00;;;;;;;;5101319;27;47529;-76
2023/10/12 01:17:17;;;;;;;;;10.33;10.33;;;;;;;;5102494;27;45266;-74
2023/10/12 01:19:44;;;;;;;;;7.00;7.00;;;;;;;;5102984;27;45305;-77
2023/10/12 01:22:13;;;;;;;;;10.00;10.00;;;;;;;;5102576;27;45472;-77
2023/10/12 01:24:44;;;;;;;;;11.67;9.67;;;;;;;;5102686;27;45191;-77
2023/10/12 01:27:12;;;;;;;;;11.00;11.00;;;;;;;;5102511;27;45274;-76
2023/10/12 01:29:37;;;;;;;;;13.67;13.33;;;;;;;;5090900;27;45250;-76
2023/10/12 01:34:37;;;;;;;;;9.33;8.67;;;;;;;;5082031;28;45256;-76
2023/10/12 01:37:21;;;;;;;;;14.33;13.33;;;;;;;;5079756;28;45358;-77
2023/10/12 01:45:19;;;;;;;;;12.67;10.67;;;;;;;;5081728;28;45893;-73
2023/10/12 01:47:54;;;;;;;;;13.33;12.00;;;;;;;;5080015;28;45888;-77
2023/10/12 01:50:19;;;;;;;;;11.67;11.67;;;;;;;;5081901;28;45280;-77
2023/10/12 01:52:46;;;;;;;;;10.67;10.00;;;;;;;;5081820;28;45301;-77
2023/10/12 01:55:27;;;;;;;;;14.33;13.00;;;;;;;;5081682;28;45370;-76
2023/10/12 01:57:54;;;;;;;;;14.33;12.00;;;;;;;;5081649;28;45208;-76
2023/10/12 02:00:25;;;;;;;;;12.33;11.67;;;;;;;;5080498;28;45470;-76
2023/10/12 02:03:01;;;;;;;;;12.00;11.00;;;;;;;;5079874;28;46150;-77
2023/10/12 02:05:29;;;;;;;;;10.00;10.00;;;;;;;;5081165;28;47011;-76
2023/10/12 02:07:55;;;;;;;;;14.33;12.00;;;;;;;;5080146;28;45338;-76
2023/10/12 02:10:24;;;;;;;;;12.33;12.33;;;;;;;;5081741;28;45246;-77
2023/10/12 02:12:50;;;;;;;;;12.00;11.67;;;;;;;;5081445;28;45338;-76
2023/10/12 02:15:15;;;;;;;;;14.00;12.33;;;;;;;;5079940;28;48254;-76
2023/10/12 02:17:42;;;;;;;;;14.00;11.33;;;;;;;;5079661;28;45303;-77
2023/10/12 02:20:12;;;;;;;;;11.00;9.67;;;;;;;;5080101;28;45287;-76
2023/10/12 02:22:37;;;;;;;;;14.33;14.00;;;;;;;;5079373;28;47167;-76
2023/10/12 02:25:18;;;;;;;;;13.67;13.00;;;;;;;;5081183;28;45552;-77
2023/10/12 02:27:54;;;;;;;;;16.33;15.67;;;;;;;;5079857;28;45632;-76
2023/10/12 02:30:20;;;;;;;;;12.33;10.67;;;;;;;;5097035;27;45370;-77
2023/10/12 02:33:00;;;;;;;;;11.33;9.33;;;;;;;;5101455;27;45310;-76
2023/10/12 02:35:25;;;;;;;;;12.33;12.33;;;;;;;;5101135;27;46338;-76
2023/10/12 02:37:50;;;;;;;;;13.00;13.00;;;;;;;;5101391;27;45343;-77
2023/10/12 02:40:16;;;;;;;;;14.67;14.67;;;;;;;;5101726;27;45209;-77
2023/10/12 02:42:43;;;;;;;;;11.67;11.67;;;;;;;;5101419;27;45288;-76
2023/10/12 02:45:15;;;;;;;;;13.67;11.67;;;;;;;;5101339;27;45268;-77
2023/10/12 02:47:42;;;;;;;;;11.00;11.00;;;;;;;;5100845;27;45254;-76
2023/10/12 02:52:33;;;;;;;;;11.67;11.00;;;;;;;;5100968;27;45475;-77
2023/10/12 02:55:19;;;;;;;;;10.67;10.00;;;;;;;;5099746;27;47408;-76
2023/10/12 02:57:53;;;;;;;;;14.00;14.00;;;;;;;;5101189;27;45256;-76
2023/10/12 03:00:19;;;;;;;;;15.00;11.33;;;;;;;;5099792;27;45557;-77
2023/10/12 03:02:45;;;;;;;;;10.33;10.33;;;;;;;;5100501;27;45410;-77
2023/10/12 03:05:17;;;;;;;;;11.67;11.67;;;;;;;;5100985;27;46000;-77
2023/10/12 03:07:42;;;;;;;;;12.00;11.00;;;;;;;;5099627;27;45219;-77
2023/10/12 03:10:17;;;;;;;;;14.67;13.33;;;;;;;;5082130;27;45348;-76
2023/10/12 03:12:44;;;;;;;;;14.67;14.00;;;;;;;;5079051;28;46315;-77
2023/10/12 03:15:15;;;;;;;;;10.67;10.33;;;;;;;;5080202;28;45999;-77
2023/10/12 03:18:14;;;;;;;;;11.67;10.67;;;;;;;;5079743;28;45302;-76
2023/10/12 03:20:35;;;;;;;;;13.00;13.00;;;;;;;;5077604;28;45338;-76
2023/10/12 03:23:12;;;;;;;;;12.00;11.33;;;;;;;;5079459;28;45291;-77
2023/10/12 03:25:43;;;;;;;;;11.00;9.00;;;;;;;;5080154;28;46558;-76
2023/10/12 03:30:55;;;;;;;;;12.67;12.67;;;;;;;;5060125;28;45346;-76
2023/10/12 03:33:27;;;;;;;;;15.00;13.00;;;;;;;;5058900;28;45457;-77
2023/10/12 03:36:12;;;;;;;;;13.67;11.00;;;;;;;;5059768;28;45384;-77
2023/10/12 03:38:37;;;;;;;;;15.67;14.33;;;;;;;;5059729;28;45347;-77
2023/10/12 03:43:49;;;;;;;;;14.00;14.00;;;;;;;;5059622;28;45430;-76
2023/10/12 03:46:32;;;;;;;;;17.33;15.67;;;;;;;;5059358;28;46253;-77
2023/10/12 03:49:31;;;;;;;;;14.33;13.33;;;;;;;;5059850;28;45188;-76
2023/10/12 03:51:42;;;;;;;;;14.67;13.00;;;;;;;;5058973;28;45418;-76
2023/10/12 03:54:13;;;;;;;;;11.00;11.00;;;;;;;;5059596;28;45437;-77
2023/10/12 03:56:43;;;;;;;;;13.00;13.00;;;;;;;;5059561;28;45352;-77
2023/10/12 03:59:08;;;;;;;;;12.33;11.67;;;;;;;;5059441;28;45261;-76
2023/10/12 04:01:41;;;;;;;;;12.67;12.00;;;;;;;;5059504;28;45338;-76
2023/10/12 04:04:16;;;;;;;;;15.33;13.33;;;;;;;;5059153;28;45474;-76
2023/10/12 04:12:35;;;;;;;;;15.00;14.67;;;;;;;;5050177;28;45138;-77
2023/10/12 04:15:05;;;;;;;;;14.33;14.33;;;;;;;;5077855;28;45264;-76
2023/10/12 04:22:40;;;;;;;;;12.00;12.00;;;;;;;;5079000;28;45323;-77
2023/10/12 04:25:13;;;;;;;;;14.33;13.67;;;;;;;;5077993;28;45430;-77
2023/10/12 04:27:39;;;;;;;;;14.33;14.33;;;;;;;;5079050;28;45927;-76
2023/10/12 04:30:20;;;;;;;;;11.67;11.67;;;;;;;;5094223;27;45500;-77
2023/10/12 04:35:27;;;;;;;;;12.00;12.00;;;;;;;;5099586;27;45298;-78
2023/10/12 04:37:55;;;;;;;;;14.00;12.67;;;;;;;;5099505;27;46168;-75
2023/10/12 04:40:44;;;;;;;;;15.00;14.00;;;;;;;;5099668;27;45353;-75
2023/10/12 04:43:09;;;;;;;;;14.67;13.00;;;;;;;;5098226;27;45380;-76
2023/10/12 04:46:16;;;;;;;;;12.00;12.00;;;;;;;;5099050;27;45968;-76
2023/10/12 04:48:21;;;;;;;;;13.33;12.00;;;;;;;;5102893;27;45306;-76
2023/10/12 04:50:52;;;;;;;;;16.67;14.33;;;;;;;;5103045;27;45286;-76
2023/10/12 04:53:18;;;;;;;;;13.67;13.67;;;;;;;;5103422;27;45443;-76
2023/10/12 04:55:47;;;;;;;;;15.00;14.00;;;;;;;;5101658;27;46963;-75
2023/10/12 05:00:55;;;;;;;;;12.67;10.67;;;;;;;;5102928;27;45221;-76
2023/10/12 05:03:26;;;;;;;;;12.67;12.67;;;;;;;;5102951;27;45308;-76
2023/10/12 05:05:56;;;;;;;;;13.33;12.00;;;;;;;;5102818;27;45325;-75
2023/10/12 05:08:21;;;;;;;;;17.00;13.33;;;;;;;;5102926;27;46592;-76
2023/10/12 05:10:46;;;;;;;;;12.00;12.00;;;;;;;;5101544;27;45212;-73
2023/10/12 05:13:12;;;;;;;;;11.33;11.33;;;;;;;;5103128;27;45527;-76
2023/10/12 05:18:23;;;;;;;;;11.00;11.00;;;;;;;;5102417;27;45753;-75
2023/10/12 05:20:49;;;;;;;;;16.00;15.00;;;;;;;;5101382;27;45322;-76
2023/10/12 05:23:14;;;;;;;;;12.00;12.00;;;;;;;;5094040;27;45323;-76
2023/10/12 05:28:18;;;;;;;;;13.67;13.33;;;;;;;;5082120;28;45419;-76
2023/10/12 05:30:59;;;;;;;;;13.33;12.00;;;;;;;;5061857;28;45310;-76
2023/10/12 05:36:08;;;;;;;;;16.00;14.67;;;;;;;;5061456;28;45263;-78
2023/10/12 05:38:34;;;;;;;;;13.00;13.00;;;;;;;;5061642;28;45546;-77
2023/10/12 05:41:01;;;;;;;;;15.33;13.67;;;;;;;;5061566;28;45299;-77
2023/10/12 05:43:29;;;;;;;;;12.67;12.67;;;;;;;;5060453;28;45356;-77
2023/10/12 05:45:54;;;;;;;;;17.33;14.33;;;;;;;;5061502;28;45538;-77
2023/10/12 05:48:20;;;;;;;;;15.00;15.00;;;;;;;;5061288;28;45273;-77
2023/10/12 05:50:49;;;;;;;;;11.00;11.00;;;;;;;;5061136;28;45524;-77
2023/10/12 05:53:15;;;;;;;;;14.00;13.00;;;;;;;;5081873;28;45298;-75
2023/10/12 05:55:41;;;;;;;;;16.67;15.67;;;;;;;;5081859;28;45529;-77
2023/10/12 05:58:11;;;;;;;;;16.00;14.33;;;;;;;;5078006;28;47869;-78
2023/10/12 06:00:36;;;;;;;;;12.33;12.33;;;;;;;;5061473;28;45346;-77
2023/10/12 06:03:05;;;;;;;;;15.00;14.00;;;;;;;;5061175;28;45322;-77
2023/10/12 06:05:31;;;;;;;;;14.67;14.00;;;;;;;;5062691;28;45496;-77
2023/10/12 06:08:00;;;;;;;;;15.67;15.00;;;;;;;;5072591;28;47258;-77
2023/10/12 06:10:27;;;;;;;;;17.33;15.67;;;;;;;;5081409;28;45828;-77
2023/10/12 06:12:52;;;;;;;;;17.67;16.00;;;;;;;;5081674;28;45310;-76
2023/10/12 06:15:22;;;;;;;;;15.67;13.33;;;;;;;;5079038;28;45311;-77
2023/10/12 06:17:49;;;;;;;;;13.67;13.33;;;;;;;;5078574;28;46149;-77
2023/10/12 06:20:26;;;;;;;;;15.00;14.00;;;;;;;;5077943;28;45228;-76
2023/10/12 06:22:54;;;;;;;;;14.33;14.33;;;;;;;;5076368;28;45358;-77
2023/10/12 06:25:21;;;;;;;;;13.67;12.33;;;;;;;;5078435;28;46351;-77
2023/10/12 06:27:48;;;;;;;;;16.67;15.67;;;;;;;;5078925;28;46531;-79
2023/10/12 06:30:23;;;;;;;;;15.67;12.67;;;;;;;;5078874;27;45294;-75
2023/10/12 06:32:48;;;;;;;;;14.33;13.67;;;;;;;;5079052;27;45429;-76
2023/10/12 06:35:24;;;;;;;;;16.67;16.67;;;;;;;;5079230;28;45585;-76
2023/10/12 06:37:49;;;;;;;;;16.33;15.67;;;;;;;;5079146;27;45385;-76
2023/10/12 06:45:47;;;;;;;;;17.33;17.33;;;;;;;;5077797;27;45753;-77
2023/10/12 06:48:33;;;;;;;;;22.33;20.00;;;;;;;;5077979;28;45354;-77
2023/10/12 06:51:18;;;;;;;;;25.00;23.67;;;;;;;;5076928;27;46008;-77
2023/10/12 06:53:51;;;;;;;;;21.33;21.00;;;;;;;;5075604;28;45361;-77
2023/10/12 06:58:45;;;;;;;;;20.00;18.67;;;;;;;;5082331;28;45435;-82
2023/10/12 07:01:18;;;;;;;;;21.00;18.00;;;;;;;;5085668;28;45391;-85
2023/10/12 07:03:47;;;;;;;;;19.00;18.00;;;;;;;;5086969;28;45451;-81
2023/10/12 07:06:14;;;;;;;;;20.00;20.00;;;;;;;;5068116;28;46301;-81
2023/10/12 07:08:42;;;;;;;;;22.33;18.00;;;;;;;;5061064;28;47410;-81
2023/10/12 07:11:08;;;;;;;;;21.33;19.33;;;;;;;;5069354;28;45427;-87
2023/10/12 07:13:39;;;;;;;;;17.33;17.33;;;;;;;;5068184;28;45224;-84
2023/10/12 07:16:06;;;;;;;;;22.00;20.00;;;;;;;;5075372;27;45595;-82
2023/10/12 07:18:34;;;;;;;;;15.33;15.33;;;;;;;;5082175;28;46055;-82
2023/10/12 07:20:59;;;;;;;;;18.67;18.67;;;;;;;;5089355;27;45342;-83
2023/10/12 07:23:35;;;;;;;;;22.00;19.33;;;;;;;;5081554;28;45326;-85
2023/10/12 07:26:01;;;;;;;;;19.33;17.00;;;;;;;;5071578;28;46400;-83
2023/10/12 07:28:32;;;;;;;;;20.00;17.33;;;;;;;;5069929;27;47283;-84
2023/10/12 07:33:32;;;;;;;;;21.67;18.67;;;;;;;;5073283;28;45309;-82
2023/10/12 07:36:08;;;;;;;;;21.33;19.67;;;;;;;;5061862;27;46344;-81
2023/10/12 07:38:36;;;;;;;;;17.33;17.00;;;;;;;;5060483;28;46406;-80
2023/10/12 07:41:03;;;;;;;;;20.67;19.33;;;;;;;;5078262;27;45321;-79
2023/10/12 07:43:32;;;;;;;;;19.00;19.00;;;;;;;;5071889;28;45688;-83
2023/10/12 07:46:09;;;;;;;;;21.67;21.00;;;;;;;;5072740;27;45687;-81
2023/10/12 07:48:45;;;;;;;;;21.33;20.67;;;;;;;;5064893;28;45978;-82
2023/10/12 07:51:15;;;;;;;;;20.00;20.00;;;;;;;;5065666;27;45520;-80
2023/10/12 07:53:49;;;;;;;;;22.00;21.00;;;;;;;;5067196;28;45304;-82
2023/10/12 07:56:18;;;;;;;;;19.67;19.33;;;;;;;;5058144;27;46827;-81
2023/10/12 07:58:51;;;;;;;;;22.00;22.00;;;;;;;;5057130;28;46442;-81
2023/10/12 08:03:58;;;;;;;;;24.33;20.00;;;;;;;;5078077;28;45375;-80
2023/10/12 08:06:31;;;;;;;;;20.33;19.00;;;;;;;;5077338;28;45594;-81
2023/10/12 08:09:19;;;;;;;;;22.00;21.67;;;;;;;;5077727;28;45960;-80
2023/10/12 08:11:45;;;;;;;;;22.00;21.00;;;;;;;;5077601;28;45318;-83
2023/10/12 08:17:33;;;;;;;;;18.33;18.33;;;;;;;;5078731;28;45284;-82
2023/10/12 08:19:39;;;;;;;;;26.00;22.33;;;;;;;;5072481;28;45581;-81
2023/10/12 08:22:14;;;;;;;;;24.67;22.00;;;;;;;;5082366;28;45255;-82
2023/10/12 08:24:39;;;;;;;;;21.33;20.33;;;;;;;;5082001;28;45472;-81
2023/10/12 08:27:06;;;;;;;;;22.00;22.00;;;;;;;;5081575;28;46511;-82
2023/10/12 08:39:38;;;;;;;;;20.00;19.67;;;;;;;;5082612;28;45310;-82
2023/10/12 08:44:48;;;;;;;;;23.00;21.00;;;;;;;;5083038;28;45428;-82
2023/10/12 08:47:24;;;;;;;;;22.33;20.33;;;;;;;;5081037;28;46364;-82
2023/10/12 08:49:53;;;;;;;;;20.33;20.33;;;;;;;;5081249;28;47137;-83
2023/10/12 08:52:21;;;;;;;;;21.00;18.67;;;;;;;;5081320;28;45358;-83
2023/10/12 08:54:53;;;;;;;;;22.00;19.33;;;;;;;;5082973;28;45278;-82
2023/10/12 08:57:35;;;;;;;;;21.67;20.67;;;;;;;;5082410;28;45516;-83
2023/10/12 09:03:00;;;;;;;;;20.00;19.00;;;;;;;;5082107;28;45337;-83
2023/10/12 09:05:28;;;;;;;;;22.33;21.00;;;;;;;;5081111;28;45358;-83
2023/10/12 09:08:07;;;;;;;;;20.67;20.00;;;;;;;;5082513;28;45215;-83
2023/10/12 09:10:55;;;;;;;;;20.33;19.33;;;;;;;;5082483;28;45618;-83
2023/10/12 09:13:26;;;;;;;;;19.33;18.67;;;;;;;;5081558;28;45283;-84
2023/10/12 09:15:55;;;;;;;;;23.00;19.33;;;;;;;;5082670;28;45274;-83
2023/10/12 09:18:24;;;;;;;;;20.67;19.67;;;;;;;;5084312;28;46125;-83
2023/10/12 09:36:43;;;;;;;;;22.33;20.00;;;;;;;;5081962;28;45475;-79
2023/10/12 09:39:12;;;;;;;;;18.00;17.33;;;;;;;;5081195;28;45482;-81
2023/10/12 09:41:39;;;;;;;;;17.33;17.33;;;;;;;;5078641;28;46360;-79
2023/10/12 09:44:05;;;;;;;;;22.00;22.00;;;;;;;;5075067;28;45323;-80
2023/10/12 09:46:32;;;;;;;;;20.67;19.67;;;;;;;;5069548;28;45683;-80
2023/10/12 09:49:06;;;;;;;;;22.00;22.00;;;;;;;;5071104;28;45318;-79
2023/10/12 09:51:45;;;;;;;;;20.67;20.67;;;;;;;;5069964;28;45399;-79
2023/10/12 09:54:27;;;;;;;;;22.67;22.33;;;;;;;;5069083;28;45287;-78
2023/10/12 09:56:57;;;;;;;;;24.67;23.00;;;;;;;;5077231;28;45528;-79
2023/10/12 09:59:22;;;;;;;;;21.00;20.67;;;;;;;;5061040;28;45311;-78
2023/10/12 10:09:38;;;;;;;;;21.00;20.00;;;;;;;;5060932;28;45254;-77
2023/10/12 10:12:07;;;;;;;;;20.00;18.00;;;;;;;;5073417;28;45478;-77
2023/10/12 10:14:36;;;;;;;;;21.33;19.33;;;;;;;;5079989;28;45480;-78
2023/10/12 10:17:02;;;;;;;;;22.67;20.33;;;;;;;;5081364;28;45149;-78
2023/10/12 10:19:30;;;;;;;;;22.33;20.00;;;;;;;;5067512;28;45417;-79
2023/10/12 10:22:05;;;;;;;;;23.00;20.33;;;;;;;;5063678;28;46188;-79
2023/10/12 10:24:46;;;;;;;;;24.00;20.67;;;;;;;;5079478;27;45950;-79
2023/10/12 10:27:14;;;;;;;;;20.00;19.33;;;;;;;;5073242;28;45432;-79
2023/10/12 10:29:56;;;;;;;;;16.00;16.00;;;;;;;;5084024;27;46604;-79
2023/10/12 10:32:36;;;;;;;;;21.00;21.00;;;;;;;;5060574;28;45600;-79
2023/10/12 10:35:08;;;;;;;;;18.33;17.67;;;;;;;;5061038;28;45381;-79
2023/10/12 10:37:47;;;;;;;;;21.67;21.67;;;;;;;;5071399;27;45346;-79
2023/10/12 10:40:17;;;;;;;;;22.67;21.33;;;;;;;;5081563;28;45329;-78
2023/10/12 10:42:45;;;;;;;;;21.33;21.33;;;;;;;;5079358;28;48380;-76
2023/10/12 10:45:12;;;;;;;;;25.00;21.67;;;;;;;;5080929;28;45312;-79
2023/10/12 10:47:42;;;;;;;;;22.00;20.67;;;;;;;;5079064;28;45355;-76
2023/10/12 10:50:12;;;;;;;;;25.00;22.67;;;;;;;;5074455;28;45775;-80
2023/10/12 10:52:38;;;;;;;;;23.33;22.33;;;;;;;;5074255;28;47476;-77
2023/10/12 10:55:10;;;;;;;;;20.67;19.33;;;;;;;;5067574;28;45280;-77
2023/10/12 10:57:37;;;;;;;;;20.33;20.33;;;;;;;;5079046;28;46540;-79
2023/10/12 11:00:10;;;;;;;;;23.00;20.33;;;;;;;;5076691;28;45484;-79
2023/10/12 11:02:35;;;;;;;;;24.33;21.33;;;;;;;;5073659;28;45493;-79
2023/10/12 11:05:02;;;;;;;;;24.00;22.00;;;;;;;;5059663;28;45314;-78
2023/10/12 11:07:27;;;;;;;;;23.33;21.33;;;;;;;;5073037;28;45325;-78
2023/10/12 11:10:06;;;;;;;;;22.33;21.33;;;;;;;;5064009;27;45697;-76
2023/10/12 11:12:32;;;;;;;;;19.00;19.00;;;;;;;;5065895;27;45420;-76
2023/10/12 11:15:00;;;;;;;;;26.33;24.67;;;;;;;;5069612;27;45305;-78
2023/10/12 11:17:30;;;;;;;;;21.00;21.00;;;;;;;;5067162;27;45359;-78
2023/10/12 11:19:58;;;;;;;;;21.00;20.00;;;;;;;;5067277;28;45279;-78
2023/10/12 11:22:24;;;;;;;;;20.33;19.67;;;;;;;;5068321;27;47038;-77
2023/10/12 11:24:49;;;;;;;;;22.67;19.67;;;;;;;;5076645;28;45412;-78
2023/10/12 11:27:34;;;;;;;;;22.00;22.00;;;;;;;;5067558;28;45617;-78
2023/10/12 11:30:00;;;;;;;;;23.00;21.33;;;;;;;;5075138;27;45485;-78
2023/10/12 11:32:28;;;;;;;;;23.33;22.33;;;;;;;;5068620;28;45479;-77
2023/10/12 11:34:55;;;;;;;;;22.33;19.67;;;;;;;;5065361;28;45929;-77
2023/10/12 11:37:23;;;;;;;;;22.33;21.00;;;;;;;;5070610;28;45334;-77
2023/10/12 11:39:52;;;;;;;;;21.67;20.67;;;;;;;;5067726;27;45495;-77
2023/10/12 11:42:17;;;;;;;;;23.00;22.00;;;;;;;;5073717;28;45510;-78
2023/10/12 11:44:43;;;;;;;;;20.00;20.00;;;;;;;;5069901;27;45418;-76
2023/10/12 11:47:14;;;;;;;;;23.33;22.67;;;;;;;;5067874;28;45445;-77
2023/10/12 11:49:50;;;;;;;;;22.33;21.67;;;;;;;;5066590;27;46180;-76
2023/10/12 11:52:29;;;;;;;;;21.67;20.67;;;;;;;;5067807;28;45543;-76
2023/10/12 11:54:59;;;;;;;;;21.33;21.00;;;;;;;;5064244;27;45211;-77
2023/10/12 11:57:27;;;;;;;;;21.00;20.00;;;;;;;;5074469;28;45487;-77
2023/10/12 11:59:52;;;;;;;;;27.67;25.67;;;;;;;;5071277;27;46243;-78
2023/10/12 12:02:17;;;;;;;;;18.00;17.00;;;;;;;;5068426;28;46199;-77
2023/10/12 12:04:43;;;;;;;;;22.67;21.67;;;;;;;;5072402;27;45469;-77
2023/10/12 12:07:10;;;;;;;;;20.33;20.33;;;;;;;;5069307;28;45393;-78
2023/10/12 12:09:39;;;;;;;;;22.67;22.67;;;;;;;;5071677;27;45580;-79
2023/10/12 12:12:07;;;;;;;;;20.00;19.33;;;;;;;;5078973;28;45344;-77
2023/10/12 12:14:32;;;;;;;;;26.67;23.67;;;;;;;;5078863;27;45417;-78
2023/10/12 12:16:58;;;;;;;;;17.00;16.33;;;;;;;;5078101;28;45424;-81
2023/10/12 12:19:24;;;;;;;;;19.00;19.00;;;;;;;;5070689;28;45423;-83
2023/10/12 12:21:49;;;;;;;;;19.00;18.33;;;;;;;;5061456;28;46575;-83
2023/10/12 12:24:22;;;;;;;;;21.00;20.00;;;;;;;;5058628;28;45371;-84
2023/10/12 12:26:49;;;;;;;;;21.00;17.00;;;;;;;;5061907;28;45421;-81
2023/10/12 12:29:16;;;;;;;;;24.00;22.00;;;;;;;;5074892;27;45269;-82
2023/10/12 12:31:41;;;;;;;;;22.33;21.33;;;;;;;;5080571;28;45404;-82
2023/10/12 12:34:06;;;;;;;;;21.00;21.00;;;;;;;;5064360;28;45492;-82
2023/10/12 12:36:32;;;;;;;;;22.00;21.00;;;;;;;;5061932;28;45267;-82
2023/10/12 12:38:58;;;;;;;;;24.33;23.67;;;;;;;;5063364;28;45279;-84
2023/10/12 12:41:23;;;;;;;;;25.67;22.33;;;;;;;;5060649;28;46411;-81
2023/10/12 12:43:53;;;;;;;;;21.00;20.67;;;;;;;;5060243;28;45304;-82
2023/10/12 12:46:18;;;;;;;;;18.33;18.33;;;;;;;;5058188;28;45373;-83
2023/10/12 12:48:51;;;;;;;;;17.67;17.00;;;;;;;;5060545;28;46287;-83
2023/10/12 12:51:17;;;;;;;;;18.33;18.00;;;;;;;;5058596;28;45483;-84
2023/10/12 12:53:48;;;;;;;;;22.00;20.33;;;;;;;;5058671;28;45378;-81
2023/10/12 12:56:14;;;;;;;;;20.33;18.67;;;;;;;;5059729;28;45386;-83
2023/10/12 12:58:46;;;;;;;;;19.00;18.33;;;;;;;;5057959;28;46181;-83
2023/10/12 13:01:11;;;;;;;;;19.67;19.33;;;;;;;;5058846;28;45567;-83
2023/10/12 13:03:36;;;;;;;;;19.00;18.00;;;;;;;;5060074;28;45200;-86
2023/10/12 13:06:07;;;;;;;;;20.33;20.33;;;;;;;;5078095;28;45224;-85
2023/10/12 13:08:33;;;;;;;;;18.33;18.33;;;;;;;;5074545;28;46090;-84
2023/10/12 13:10:59;;;;;;;;;16.33;16.33;;;;;;;;5072348;28;46121;-81
2023/10/12 13:13:24;;;;;;;;;14.67;14.00;;;;;;;;5060861;28;45235;-81
2023/10/12 13:15:50;;;;;;;;;17.00;16.00;;;;;;;;5064470;28;45230;-82
2023/10/12 13:18:15;;;;;;;;;17.33;17.33;;;;;;;;5072772;28;45754;-80
2023/10/12 13:20:46;;;;;;;;;15.67;15.00;;;;;;;;5069206;28;45813;-82
2023/10/12 13:23:13;;;;;;;;;18.33;16.33;;;;;;;;5069502;27;45463;-82
2023/10/12 13:25:38;;;;;;;;;20.67;17.33;;;;;;;;5068232;28;45333;-81
2023/10/12 13:28:03;;;;;;;;;17.33;14.00;;;;;;;;5065143;28;45362;-80
2023/10/12 13:30:30;;;;;;;;;15.00;15.00;;;;;;;;5070072;27;48393;-82
2023/10/12 13:32:59;;;;;;;;;15.00;15.00;;;;;;;;5073185;28;45157;-81
2023/10/12 13:38:07;;;;;;;;;12.67;12.33;;;;;;;;5077277;28;45401;-80
2023/10/12 13:40:35;;;;;;;;;12.00;12.00;;;;;;;;5074459;28;48163;-83
2023/10/12 13:43:18;;;;;;;;;14.00;13.00;;;;;;;;5069587;28;46111;-83
2023/10/12 13:45:47;;;;;;;;;13.67;12.67;;;;;;;;5070941;28;45261;-80
2023/10/12 13:48:24;;;;;;;;;10.67;10.67;;;;;;;;5070035;28;46730;-79
2023/10/12 13:51:00;;;;;;;;;9.33;7.67;;;;;;;;5068260;27;45322;-81
2023/10/12 13:53:28;;;;;;;;;10.33;10.33;;;;;;;;5102161;27;45419;-81
2023/10/12 13:55:53;;;;;;;;;9.25;9.25;;;;;;;;5101857;27;45298;-82
2023/10/12 13:58:25;;;;;;;;;12.67;11.00;;;;;;;;5102033;27;45500;-80
2023/10/12 14:00:54;;;;;;;;;9.33;8.00;;;;;;;;5099816;27;48342;-80
2023/10/12 14:03:27;;;;;;;;;11.67;11.00;;;;;;;;5101766;27;45455;-83
2023/10/12 14:05:54;;;;;;;;;10.67;10.00;;;;;;;;5101989;27;45612;-78
2023/10/12 14:08:19;;;;;;;;;14.00;14.00;;;;;;;;5096985;27;45691;-80
2023/10/12 14:10:45;;;;;;;;;9.00;9.00;;;;;;;;5080721;28;47378;-79
2023/10/12 14:13:13;;;;;;;;;10.33;10.33;;;;;;;;5080686;27;46046;-82
2023/10/12 14:15:43;;;;;;;;;10.33;10.00;;;;;;;;5080433;28;45237;-80
2023/10/12 14:18:11;;;;;;;;;9.67;9.33;;;;;;;;5080283;27;45552;-80
2023/10/12 14:20:37;;;;;;;;;10.25;10.25;;;;;;;;5078447;28;48267;-83
2023/10/12 14:23:09;;;;;;;;;12.00;10.00;;;;;;;;5070045;27;45612;-81
2023/10/12 14:25:35;;;;;;;;;11.00;10.33;;;;;;;;5059806;28;45379;-82
2023/10/12 14:28:03;;;;;;;;;8.00;8.00;;;;;;;;5078465;27;45393;-83
2023/10/12 14:30:28;;;;;;;;;9.67;9.00;;;;;;;;5069538;27;47134;-85
2023/10/12 14:32:54;;;;;;;;;10.33;9.00;;;;;;;;5075497;27;45722;-82
2023/10/12 14:35:20;;;;;;;;;7.50;7.50;;;;;;;;5081143;28;45266;-81
2023/10/12 14:37:45;;;;;;;;;8.67;8.00;;;;;;;;5079199;27;47493;-81
2023/10/12 14:40:19;;;;;;;;;9.00;9.00;;;;;;;;5079546;28;47069;-80
2023/10/12 14:42:44;;;;;;;;;7.00;7.00;;;;;;;;5080986;27;45371;-81
2023/10/12 14:45:10;;;;;;;;;10.00;9.33;;;;;;;;5080948;28;45172;-80
2023/10/12 14:47:35;;;;;;;;;9.67;9.00;;;;;;;;5079245;28;45956;-82
2023/10/12 14:50:05;;;;;;;;;10.00;10.00;;;;;;;;5079548;28;47084;-81
2023/10/12 14:52:38;;;;;;;;;8.50;8.50;;;;;;;;5081121;28;45420;-81
2023/10/12 14:55:04;;;;;;;;;7.67;7.67;;;;;;;;5078163;28;46023;-83
2023/10/12 14:57:30;;;;;;;;;8.25;8.25;;;;;;;;5079157;28;47129;-82
2023/10/12 14:59:55;;;;;;;;;11.00;10.25;;;;;;;;5079417;28;47206;-82
2023/10/12 15:02:20;;;;;;;;;7.67;7.67;;;;;;;;5080820;28;45361;-81
2023/10/12 15:04:46;;;;;;;;;9.33;8.67;;;;;;;;5079729;28;45292;-80
2023/10/12 15:07:12;;;;;;;;;7.33;7.33;;;;;;;;5080695;28;45399;-82
2023/10/12 15:09:37;;;;;;;;;10.00;10.00;;;;;;;;5079323;28;48474;-83
2023/10/12 15:12:05;;;;;;;;;10.00;9.75;;;;;;;;5080595;28;45287;-82
2023/10/12 15:14:31;;;;;;;;;9.00;7.00;;;;;;;;5080620;28;45259;-78
2023/10/12 15:16:56;;;;;;;;;10.00;9.25;;;;;;;;5080036;28;45520;-78
2023/10/12 15:19:22;;;;;;;;;11.67;9.67;;;;;;;;5076514;27;48268;-78
2023/10/12 15:21:48;;;;;;;;;7.50;7.25;;;;;;;;5079680;27;45334;-77
2023/10/12 15:24:14;;;;;;;;;10.33;10.33;;;;;;;;5078997;27;45423;-78
2023/10/12 15:26:39;;;;;;;;;13.00;11.33;;;;;;;;5074387;28;45370;-78
2023/10/12 15:29:08;;;;;;;;;10.00;10.00;;;;;;;;5078924;27;45428;-77
2023/10/12 15:31:33;;;;;;;;;10.33;10.33;;;;;;;;5079911;28;45303;-77
2023/10/12 15:33:59;;;;;;;;;11.33;10.67;;;;;;;;5080225;28;45318;-78
2023/10/12 15:36:25;;;;;;;;;11.33;10.67;;;;;;;;5078854;27;45484;-77
2023/10/12 15:38:51;;;;;;;;;8.00;7.67;;;;;;;;5073506;28;47385;-77
2023/10/12 15:41:19;;;;;;;;;9.67;9.00;;;;;;;;5070778;27;45405;-78
2023/10/12 15:43:44;;;;;;;;;8.00;8.00;;;;;;;;5069712;28;45492;-76
2023/10/12 15:46:11;;;;;;;;;10.00;9.00;;;;;;;;5069302;28;46194;-76
2023/10/12 15:48:36;;;;;;;;;12.00;11.33;;;;;;;;5068119;28;45405;-76
2023/10/12 15:51:03;;;;;;;;;12.00;11.67;;;;;;;;5068058;28;45482;-76
2023/10/12 15:53:28;;;;;;;;;10.67;10.33;;;;;;;;5074103;28;45386;-75
2023/10/12 15:55:53;;;;;;;;;8.50;8.50;;;;;;;;5069215;28;45862;-76
2023/10/12 15:58:18;;;;;;;;;9.33;9.33;;;;;;;;5068872;28;45307;-76
2023/10/12 16:00:45;;;;;;;;;9.67;9.67;;;;;;;;5069433;28;45126;-76
2023/10/12 16:03:10;;;;;;;;;11.33;9.33;;;;;;;;5067952;28;45137;-76
2023/10/12 16:05:36;;;;;;;;;8.75;8.50;;;;;;;;5068344;28;47098;-75
2023/10/12 16:08:10;;;;;;;;;10.00;7.67;;;;;;;;5068981;28;45207;-74
2023/10/12 16:10:36;;;;;;;;;9.25;9.25;;;;;;;;5078150;28;45338;-75
2023/10/12 16:13:01;;;;;;;;;11.50;8.50;;;;;;;;5076074;28;45546;-76
2023/10/12 16:15:27;;;;;;;;;11.00;10.33;;;;;;;;5079539;28;45196;-76
2023/10/12 16:17:53;;;;;;;;;11.00;11.00;;;;;;;;5077549;27;47288;-76